createdAt,value
2019-06-20T00:04:09.697Z,99556.95
2019-06-20T00:09:11.774Z,99549.28
2019-06-20T00:14:13.877Z,99537.89
2019-06-20T00:19:15.965Z,99538.63
2019-06-20T00:24:18.054Z,99531.25
2019-06-20T00:29:20.107Z,99529.20
2019-06-20T00:34:22.209Z,99512.23
2019-06-20T00:39:24.311Z,99527.49
2019-06-20T00:44:26.411Z,99609.63
2019-06-20T00:49:28.502Z,99623.63
2019-06-20T00:54:30.537Z,99658.01
2019-06-20T00:59:32.603Z,99677.09
2019-06-20T01:04:34.681Z,99643.06
2019-06-20T01:09:36.820Z,99661.92
2019-06-20T01:14:38.890Z,99629.95
2019-06-20T01:19:41.018Z,99670.92
2019-06-20T01:24:43.171Z,99671.67
2019-06-20T01:29:45.250Z,99673.55
2019-06-20T01:34:47.317Z,99686.75
2019-06-20T01:39:49.380Z,99687.98
2019-06-20T01:44:51.457Z,99687.70
2019-06-20T01:49:53.538Z,99681.73
2019-06-20T01:54:55.584Z,99659.27
2019-06-20T01:59:57.681Z,99665.00
2019-06-20T02:04:59.798Z,99655.53
2019-06-20T02:10:01.856Z,99655.29
2019-06-20T02:15:04.255Z,99657.83
2019-06-20T02:20:06.811Z,99646.84
2019-06-20T02:25:09.597Z,99634.05
2019-06-20T02:30:11.904Z,99619.80
2019-06-20T02:35:13.990Z,99611.73
2019-06-20T02:40:16.070Z,99594.84
2019-06-20T02:45:18.512Z,99582.56
2019-06-20T02:50:20.913Z,99591.62
2019-06-20T02:55:22.933Z,99604.87
2019-06-20T03:01:04.749Z,99600.87
2019-06-20T03:06:06.834Z,99609.88
2019-06-20T03:11:10.558Z,99634.94
2019-06-20T03:16:12.659Z,99651.39
2019-06-20T03:21:14.757Z,99658.17
2019-06-20T03:26:16.839Z,99674.33
2019-06-20T03:31:18.950Z,99673.47
2019-06-20T03:36:21.134Z,99670.85
2019-06-20T03:41:23.364Z,99670.64
2019-06-20T03:46:27.556Z,99665.36
2019-06-20T03:51:29.730Z,99647.31
2019-06-20T03:56:31.906Z,99659.78
2019-06-20T04:01:35.660Z,99690.26
2019-06-20T04:06:37.801Z,99693.36
2019-06-20T04:11:39.881Z,99699.53
2019-06-20T04:16:41.978Z,99770.88
2019-06-20T04:21:44.227Z,99871.66
2019-06-20T04:26:46.330Z,99865.28
2019-06-20T04:31:48.419Z,99856.31
2019-06-20T04:36:52.313Z,99879.56
2019-06-20T04:41:54.402Z,99883.52
2019-06-20T04:47:02.869Z,99880.02
2019-06-20T04:52:11.439Z,99879.67
2019-06-20T04:57:18.454Z,99859.66
2019-06-20T05:14:46.993Z,99840.92
2019-06-20T05:19:49.232Z,99843.14
2019-06-20T05:24:59.483Z,99838.26
2019-06-20T05:30:01.915Z,99831.17
2019-06-20T05:35:04.285Z,99825.66
2019-06-20T05:40:07.249Z,99840.80
2019-06-20T05:45:10.067Z,99836.41
2019-06-20T05:50:18.135Z,99881.80
2019-06-20T05:55:20.433Z,99882.55
2019-06-20T06:00:22.922Z,99870.55
2019-06-20T06:05:25.065Z,99855.42
2019-06-20T06:10:27.089Z,99834.84
2019-06-20T06:15:29.161Z,99849.05
2019-06-20T06:20:31.281Z,99832.20
2019-06-20T06:25:33.462Z,99824.26
2019-06-20T06:30:35.756Z,99837.62
2019-06-20T06:35:38.021Z,99819.56
2019-06-20T06:40:40.159Z,99823.19
2019-06-20T06:45:47.343Z,99821.48
2019-06-20T06:50:49.555Z,99823.75
2019-06-20T06:55:51.675Z,99815.86
2019-06-20T07:00:53.738Z,99827.55
2019-06-20T07:06:03.182Z,99843.36
2019-06-20T07:11:18.830Z,99839.53
2019-06-20T07:16:20.944Z,99828.70
2019-06-20T07:21:23.145Z,99836.25
2019-06-20T07:26:25.216Z,99839.10
2019-06-20T07:31:27.381Z,99827.53
2019-06-20T07:36:29.500Z,99835.59
2019-06-20T07:41:31.576Z,99852.47
2019-06-20T07:46:33.697Z,99844.03
2019-06-20T07:51:37.004Z,99833.30
2019-06-20T07:56:39.246Z,99834.09
2019-06-20T08:01:41.343Z,99839.86
2019-06-20T08:06:44.668Z,99836.22
2019-06-20T08:11:46.724Z,99835.83
2019-06-20T08:16:48.834Z,99843.81
2019-06-20T08:21:50.961Z,99838.70
2019-06-20T08:26:53.051Z,99854.79
2019-06-20T08:31:55.957Z,99847.04
2019-06-20T08:37:00.443Z,99848.17
2019-06-20T08:42:04.304Z,99840.89
2019-06-20T08:47:06.592Z,99839.52
2019-06-20T08:52:08.686Z,99845.40
2019-06-20T08:57:10.741Z,99840.52
2019-06-20T09:02:12.858Z,99835.19
2019-06-20T09:07:15.245Z,99842.77
2019-06-20T09:12:17.286Z,99847.86
2019-06-20T09:17:19.347Z,99842.11
2019-06-20T09:22:21.452Z,99847.22
2019-06-20T09:27:23.584Z,99848.05
2019-06-20T09:32:25.659Z,99846.97
2019-06-20T09:37:27.825Z,99850.64
2019-06-20T09:42:29.934Z,99852.52
2019-06-20T09:47:32.058Z,99854.75
2019-06-20T09:52:34.186Z,99867.45
2019-06-20T09:57:36.317Z,99871.24
2019-06-20T10:02:39.112Z,99869.61
2019-06-20T10:07:43.200Z,99870.67
2019-06-20T10:12:46.760Z,99878.00
2019-06-20T10:17:50.100Z,99870.81
2019-06-20T10:22:53.063Z,99871.91
2019-06-20T10:27:55.345Z,99878.14
2019-06-20T10:32:57.870Z,99872.24
2019-06-20T10:38:00.124Z,99877.94
2019-06-20T10:43:02.195Z,99876.68
2019-06-20T10:48:04.293Z,99876.42
2019-06-20T10:53:06.407Z,99879.59
2019-06-20T10:58:08.459Z,99880.45
2019-06-20T11:03:10.617Z,99881.45
2019-06-20T11:08:12.824Z,99887.63
2019-06-20T11:13:17.321Z,99880.33
2019-06-20T11:18:19.380Z,99885.55
2019-06-20T11:23:21.476Z,99886.59
2019-06-20T11:28:23.526Z,99887.08
2019-06-20T11:33:25.597Z,99888.91
2019-06-20T11:38:27.718Z,99884.52
2019-06-20T11:43:29.993Z,99886.91
2019-06-20T11:48:32.039Z,99880.84
2019-06-20T11:53:35.303Z,99877.39
2019-06-20T11:58:38.136Z,99886.78
2019-06-20T12:03:40.762Z,99877.29
2019-06-20T12:08:43.067Z,99871.91
2019-06-20T12:13:46.578Z,99868.12
2019-06-20T12:18:49.463Z,99869.63
2019-06-20T12:23:51.754Z,99860.64
2019-06-20T12:28:53.924Z,99859.55
2019-06-20T12:33:56.016Z,99851.76
2019-06-20T12:38:58.085Z,99850.50
2019-06-20T12:44:00.682Z,99843.16
2019-06-20T12:49:03.299Z,99843.16
2019-06-20T12:54:05.523Z,99841.30
2019-06-20T12:59:08.007Z,99840.42
2019-06-20T13:04:10.146Z,99839.84
2019-06-20T13:09:12.247Z,99839.92
2019-06-20T13:14:14.356Z,99848.83
2019-06-20T13:19:17.628Z,99842.17
2019-06-20T13:24:19.724Z,99853.23
2019-06-20T13:29:23.618Z,99850.26
2019-06-20T13:34:25.973Z,99840.70
2019-06-20T13:39:32.516Z,99840.70
2019-06-20T13:44:34.642Z,99836.65
2019-06-20T13:49:36.826Z,99836.95
2019-06-20T13:54:39.628Z,99828.86
2019-06-20T13:59:43.419Z,99825.56
2019-06-20T14:04:48.345Z,99825.56
2019-06-20T14:09:51.104Z,99822.62
2019-06-20T14:14:54.357Z,99822.36
2019-06-20T14:19:56.810Z,99832.87
2019-06-20T14:25:01.248Z,99823.38
2019-06-20T14:30:04.218Z,99817.16
2019-06-20T14:35:07.424Z,99818.36
2019-06-20T14:40:12.418Z,99822.48
2019-06-20T14:45:15.106Z,99810.36
2019-06-20T14:50:17.584Z,99826.32
2019-06-20T14:55:20.255Z,99825.58
2019-06-20T15:00:23.435Z,99819.61
2019-06-20T15:05:25.647Z,99808.83
2019-06-20T15:10:28.240Z,99802.02
2019-06-20T15:15:31.598Z,99803.02
2019-06-20T15:20:34.057Z,99799.77
2019-06-20T15:25:36.189Z,99789.27
2019-06-20T15:30:38.406Z,99789.27
2019-06-20T15:35:40.521Z,99788.13
2019-06-20T15:40:47.939Z,99782.26
2019-06-20T15:45:50.767Z,99791.53
2019-06-20T15:50:54.207Z,99784.81
2019-06-20T15:55:56.445Z,99790.48
2019-06-20T16:00:58.584Z,99792.88
2019-06-20T16:06:00.769Z,99785.49
2019-06-20T16:11:03.085Z,99786.84
2019-06-20T16:16:05.196Z,99786.84
2019-06-20T16:21:09.544Z,99798.97
2019-06-20T16:26:11.974Z,99807.88
2019-06-20T16:31:26.335Z,99808.02
2019-06-20T16:36:19.308Z,99808.02
2019-06-20T16:41:21.410Z,99807.11
2019-06-20T16:46:23.509Z,99833.77
2019-06-20T16:51:25.605Z,99837.68
2019-06-20T16:56:27.849Z,99837.68
2019-06-20T17:01:30.031Z,99840.63
2019-06-20T17:06:32.094Z,99831.13
2019-06-20T17:11:34.186Z,99827.06
2019-06-20T17:16:36.274Z,99830.72
2019-06-20T17:21:38.404Z,99845.28
2019-06-20T17:26:40.558Z,99847.34
2019-06-20T17:31:42.692Z,99862.07
2019-06-20T17:36:45.024Z,99868.44
2019-06-20T17:41:55.275Z,99873.94
2019-06-20T17:46:51.279Z,99865.64
2019-06-20T17:51:55.326Z,99860.12
2019-06-20T17:56:57.647Z,99846.30
2019-06-20T18:02:11.289Z,99844.88
2019-06-20T18:07:15.123Z,99863.13
2019-06-20T18:12:18.234Z,99875.67
2019-06-20T18:17:23.850Z,99871.04
2019-06-20T18:22:27.386Z,99872.52
2019-06-20T18:27:31.541Z,99882.48
2019-06-20T18:32:35.467Z,99882.93
2019-06-20T18:37:37.528Z,99894.30
2019-06-20T18:42:39.643Z,99893.34
2019-06-20T18:47:41.723Z,99908.67
2019-06-20T18:52:52.053Z,99912.14
2019-06-20T18:57:47.928Z,99920.34
2019-06-20T19:02:54.268Z,99923.96
2019-06-20T19:07:56.410Z,99931.55
2019-06-20T19:13:00.686Z,99938.55
2019-06-20T19:18:02.891Z,99934.23
2019-06-20T19:23:05.269Z,99942.44
2019-06-20T19:28:07.433Z,99944.25
2019-06-20T19:33:09.593Z,99955.94
2019-06-20T19:38:11.833Z,99962.03
2019-06-20T19:43:14.070Z,99962.55
2019-06-20T19:48:16.361Z,99956.89
2019-06-20T19:53:20.688Z,99970.58
2019-06-20T19:58:22.975Z,99982.39
2019-06-20T20:03:25.118Z,99993.66
2019-06-20T20:08:28.784Z,100003.45
2019-06-20T20:13:31.021Z,100002.78
2019-06-20T20:18:33.191Z,100006.75
2019-06-20T20:23:35.323Z,100001.60
2019-06-20T20:28:37.362Z,100014.93
2019-06-20T20:33:39.595Z,100017.48
2019-06-20T20:38:41.646Z,99996.98
2019-06-20T20:43:43.712Z,100031.72
2019-06-20T20:48:45.881Z,100032.41
2019-06-20T20:53:48.059Z,100041.15
2019-06-20T20:58:50.191Z,100055.91
2019-06-20T21:03:52.223Z,100067.91
2019-06-20T21:14:09.614Z,100072.91
2019-06-20T21:19:12.946Z,100072.95
2019-06-20T21:24:15.020Z,100076.92
2019-06-20T21:29:17.290Z,100076.29
2019-06-20T21:34:19.342Z,100065.11
2019-06-20T21:39:23.536Z,100067.78
2019-06-20T21:44:25.635Z,100077.66
2019-06-20T21:49:27.780Z,100080.06
2019-06-20T21:54:29.825Z,100081.94
2019-06-20T21:59:31.915Z,100085.80
2019-06-20T22:04:34.101Z,100106.58
2019-06-20T22:09:36.269Z,100123.55
2019-06-20T22:14:38.344Z,100123.03
2019-06-20T22:19:40.440Z,100112.27
2019-06-20T22:24:42.524Z,100123.55
2019-06-20T22:29:44.598Z,100130.41
2019-06-20T22:34:46.826Z,100123.03
2019-06-20T22:39:48.914Z,100125.63
2019-06-20T22:44:50.858Z,100124.59
2019-06-20T22:49:52.933Z,100134.43
2019-06-20T22:54:54.996Z,100141.33
2019-06-20T22:59:57.180Z,100139.78
2019-06-20T23:04:59.073Z,100135.50
2019-06-20T23:10:10.534Z,100144.33
2019-06-20T23:15:05.196Z,100135.73
2019-06-20T23:20:07.735Z,100144.94
2019-06-20T23:25:10.675Z,100145.24
2019-06-20T23:30:13.971Z,100147.11
2019-06-20T23:35:16.187Z,100141.87
2019-06-20T23:40:18.419Z,100146.41
2019-06-20T23:45:20.577Z,100150.53
2019-06-20T23:50:22.625Z,100151.56
2019-06-20T23:55:24.711Z,100155.87
